Pular para o conteúdo principal

BOEING DA THY TURKISH AIRLINES SAI DA PISTA EM KOSOVO (02.05.2016)


Um Boeing 737-800 da Turkish Airlines, TC-JFY, realizando o voo TK-1019, de Istanbul (Turquia) para Pristina (Kosovo) com 143 passageiros e 8 tripulantes, sai da pista 35 após pouso.

A companhia informou que não houve feridos e a aeronave sofreu pequenos danos.

NOTAM:
A0192/16 - RUNWAY CLOSED FOR THE NEXT 1 HOUR DUE TO EMERGENCY IN PROGRESS. 02 MAY 22:20 2016 UNTIL 02 MAY 23:20 2016. CREATED: 02 MAY 22:20 2016

Metars:
BKPR 021900Z 13008KT 9999 -RA SCT015 BKN040 10/08 Q1007 NOSIG
BKPR 021830Z 12011KT 6000 -RA BKN012 OVC025 10/08 Q1006 RERA TEMPO 3500 RA
BKPR 021800Z 13009KT 5000 RA BKN012 OVC025 11/08 Q1006 NOSIG
BKPR 021730Z 08009KT 4000 RA BKN010 OVC025 12/09 Q1006 NOSIG
BKPR 021700Z 02009KT 8000 -RA SCT010 BKN025 11/09 Q1006 NOSIG
BKPR 021630Z 04011KT 9999 -RA SCT012 BKN030 12/09 Q1006 NOSIG
BKPR 021600Z 09011KT 7000 -RA SCT015 BKN030 13/09 Q1006 NOSIG
BKPR 021530Z 09012KT 9999 -RA SCT030 BKN050 14/08 Q1007 NOSIG
BKPR 021500Z 09011KT 9999 BKN035 14/08 Q1007 NOSIG
BKPR 021430Z 09012KT 9999 BKN035 15/08 Q1007 NOSIG
BKPR 021400Z 11017KT 9999 BKN035 15/08 Q1008 NOSIG 



fonte/foto/AvHerald

Comentários

Postagens mais visitadas deste blog

AVIÃO COM O SENADOR AÉCIO NEVES FAZ POUSO DE EMERGÊNCIA NO AEROPORTO DE GUARULHOS

Imagem com a aeronave em que estaria Aécio, fora da pista, e que circula na internet
O avião em que estava o senador Aécio Neves (PSDB) precisou fazer um pouso de emergência no aeroporto internacional de Guarulhos na noite de quinta-feira (9), informou sua assessoria de imprensa.
Já era noite quando a aeronave, um táxi aéreo fretado pelo PSDB, saiu de Brasília com destino a São Paulo. Os pilotos, percebendo que um pedaço do pneu havia ficado na pista, teriam solicitado autorização para pousar em Cumbica, ao invés de Congonhas, por ter uma pista maior. Ao aterrissar, no entanto, o trem de pouso teria se quebrado, vindo o avião a sair da pista.
Apenas Aécio e a tripulação estavam a bordo. Segundo a assessoria, nem ele nem os pilotos se feriram.
O senador veio para São Paulo porque tem reunião agendada com o ex-presidente Fernando Henrique Cardoso na manhã desta sexta (10). Apesar do incidente, o encontro foi mantido.
Fernanda Carvalho/O Tempo/Estadão Conteúdo
fonte/foto/UOL

Da…

VÍDEOS DO ACIDENTE COM BOEING 737 DA PERUVIAN AIRLINES EM JAUJA